AAL1527 KMIA-MBPV
Flight info
| Callsign | AAL1527 |
|---|---|
| Flight time | 1h 16m |
| Altitude | 37000 |
| Route | KLADA2 BITAC DCT SOLEI |
| Aircraft | A319/M-SDE3FGHIRWY/LB1 |
Departure
| Time | 2026-04-25 20:15 |
|---|---|
| Airport | Miami International Airport (KMIA) |
Arrival
| Time | 2026-04-25 21:31 |
|---|---|
| Airport | Providenciales International Airport (MBPV) |
| Time | Latitude | Longitude | Altitude | Speed | Heading |
|---|---|---|---|---|---|
| 2026-04-25 19:52 | 25.79895 | -80.27397 | 27 ft | 0 kts | 132° |
| 2026-04-25 20:03 | 25.79910 | -80.27416 | 26 ft | 4 kts | 132° |
| 2026-04-25 20:04 | 25.79928 | -80.27438 | 25 ft | 4 kts | 129° |
| 2026-04-25 20:04 | 25.79946 | -80.27461 | 25 ft | 4 kts | 134° |
| 2026-04-25 20:04 | 25.79965 | -80.27481 | 25 ft | 4 kts | 148° |
| 2026-04-25 20:04 | 25.79986 | -80.27490 | 24 ft | 4 kts | 208° |
| 2026-04-25 20:05 | 25.79993 | -80.27483 | 24 ft | 1 kts | 251° |
| 2026-04-25 20:05 | 25.79993 | -80.27481 | 23 ft | 0 kts | 251° |
| 2026-04-25 20:07 | 25.79988 | -80.27498 | 23 ft | 4 kts | 253° |
| 2026-04-25 20:08 | 25.79985 | -80.27540 | 21 ft | 7 kts | 268° |
| 2026-04-25 20:08 | 25.79992 | -80.27601 | 21 ft | 9 kts | 296° |
| 2026-04-25 20:08 | 25.80048 | -80.27636 | 21 ft | 10 kts | 333° |
| 2026-04-25 20:08 | 25.80062 | -80.27710 | 21 ft | 11 kts | 271° |
| 2026-04-25 20:09 | 25.80062 | -80.27806 | 19 ft | 14 kts | 264° |
| 2026-04-25 20:09 | 25.80053 | -80.27925 | 16 ft | 17 kts | 266° |
| 2026-04-25 20:09 | 25.80046 | -80.28064 | 16 ft | 18 kts | 267° |
| 2026-04-25 20:09 | 25.80041 | -80.28204 | 19 ft | 18 kts | 268° |
| 2026-04-25 20:10 | 25.80034 | -80.28344 | 19 ft | 19 kts | 267° |
| 2026-04-25 20:10 | 25.80028 | -80.28491 | 20 ft | 19 kts | 266° |
| 2026-04-25 20:10 | 25.80023 | -80.28634 | 24 ft | 18 kts | 268° |
| 2026-04-25 20:10 | 25.80018 | -80.28766 | 27 ft | 17 kts | 267° |
| 2026-04-25 20:11 | 25.80011 | -80.28905 | 25 ft | 19 kts | 266° |
| 2026-04-25 20:11 | 25.80006 | -80.29060 | 25 ft | 21 kts | 266° |
| 2026-04-25 20:11 | 25.79997 | -80.29219 | 26 ft | 21 kts | 266° |
| 2026-04-25 20:11 | 25.79990 | -80.29395 | 20 ft | 25 kts | 268° |
| 2026-04-25 20:12 | 25.79983 | -80.29596 | 18 ft | 26 kts | 268° |
| 2026-04-25 20:12 | 25.79975 | -80.29782 | 17 ft | 22 kts | 267° |
| 2026-04-25 20:12 | 25.79970 | -80.29915 | 15 ft | 15 kts | 267° |
| 2026-04-25 20:12 | 25.79970 | -80.29949 | 15 ft | 8 kts | 274° |
| 2026-04-25 20:13 | 25.79973 | -80.29975 | 15 ft | 4 kts | 280° |
| 2026-04-25 20:13 | 25.79979 | -80.30009 | 18 ft | 5 kts | 283° |
| 2026-04-25 20:13 | 25.79996 | -80.30063 | 18 ft | 9 kts | 290° |
| 2026-04-25 20:13 | 25.80037 | -80.30124 | 19 ft | 11 kts | 341° |
| 2026-04-25 20:14 | 25.80074 | -80.30044 | 17 ft | 16 kts | 87° |
| 2026-04-25 20:14 | 25.80086 | -80.29746 | 18 ft | 73 kts | 87° |
| 2026-04-25 20:14 | 25.80112 | -80.28942 | 25 ft | 133 kts | 88° |
| 2026-04-25 20:14 | 25.80187 | -80.27754 | 244 ft | 162 kts | 88° |
| 2026-04-25 20:15 | 25.80269 | -80.26523 | 1018 ft | 160 kts | 88° |
| 2026-04-25 20:15 | 25.80138 | -80.25307 | 1772 ft | 162 kts | 113° |
| 2026-04-25 20:15 | 25.79608 | -80.24124 | 2261 ft | 182 kts | 117° |
| 2026-04-25 20:15 | 25.78997 | -80.22796 | 2633 ft | 205 kts | 117° |
| 2026-04-25 20:16 | 25.78316 | -80.21316 | 3061 ft | 228 kts | 117° |
| 2026-04-25 20:16 | 25.77824 | -80.20244 | 3367 ft | 244 kts | 117° |
| 2026-04-25 20:16 | 25.77026 | -80.18499 | 4067 ft | 260 kts | 117° |
| 2026-04-25 20:16 | 25.76180 | -80.16697 | 4977 ft | 267 kts | 118° |
| 2026-04-25 20:17 | 25.74974 | -80.14252 | 6143 ft | 277 kts | 119° |
| 2026-04-25 20:17 | 25.74338 | -80.12978 | 6736 ft | 282 kts | 119° |
| 2026-04-25 20:17 | 25.73396 | -80.11033 | 7537 ft | 290 kts | 114° |
| 2026-04-25 20:17 | 25.72434 | -80.08229 | 8725 ft | 297 kts | 110° |
| 2026-04-25 20:18 | 25.71949 | -80.06768 | 9333 ft | 300 kts | 110° |
| 2026-04-25 20:18 | 25.71223 | -80.04574 | 10152 ft | 306 kts | 110° |
| 2026-04-25 20:18 | 25.70472 | -80.02305 | 10517 ft | 329 kts | 110° |
| 2026-04-25 20:18 | 25.69661 | -79.99865 | 11054 ft | 343 kts | 110° |
| 2026-04-25 20:19 | 25.68827 | -79.97355 | 11806 ft | 350 kts | 110° |
| 2026-04-25 20:19 | 25.67981 | -79.94799 | 12591 ft | 356 kts | 109° |
| 2026-04-25 20:19 | 25.67122 | -79.92202 | 13368 ft | 361 kts | 109° |
| 2026-04-25 20:19 | 25.66250 | -79.89567 | 14089 ft | 367 kts | 109° |
| 2026-04-25 20:20 | 25.65363 | -79.86896 | 14785 ft | 371 kts | 109° |
| 2026-04-25 20:20 | 25.64464 | -79.84192 | 15499 ft | 375 kts | 109° |
| 2026-04-25 20:20 | 25.63558 | -79.81464 | 16202 ft | 379 kts | 109° |
| 2026-04-25 20:20 | 25.62640 | -79.78709 | 16903 ft | 383 kts | 110° |
| 2026-04-25 20:21 | 25.61711 | -79.75927 | 17600 ft | 387 kts | 110° |
| 2026-04-25 20:21 | 25.60768 | -79.73112 | 18278 ft | 392 kts | 110° |
| 2026-04-25 20:21 | 25.59815 | -79.70269 | 18879 ft | 395 kts | 110° |
| 2026-04-25 20:21 | 25.58832 | -79.67414 | 19489 ft | 399 kts | 111° |
| 2026-04-25 20:22 | 25.57804 | -79.64552 | 20103 ft | 402 kts | 111° |
| 2026-04-25 20:22 | 25.57090 | -79.62610 | 20514 ft | 404 kts | 111° |
| 2026-04-25 20:22 | 25.55662 | -79.58781 | 21329 ft | 408 kts | 112° |
| 2026-04-25 20:22 | 25.54570 | -79.55858 | 21946 ft | 411 kts | 111° |
| 2026-04-25 20:23 | 25.53478 | -79.52918 | 22549 ft | 414 kts | 111° |
| 2026-04-25 20:23 | 25.52381 | -79.49954 | 23159 ft | 417 kts | 111° |
| 2026-04-25 20:23 | 25.51284 | -79.46965 | 23719 ft | 420 kts | 111° |
| 2026-04-25 20:23 | 25.50184 | -79.43952 | 24194 ft | 424 kts | 111° |
| 2026-04-25 20:24 | 25.49072 | -79.40906 | 24654 ft | 428 kts | 111° |
| 2026-04-25 20:24 | 25.47953 | -79.37839 | 25094 ft | 432 kts | 111° |
| 2026-04-25 20:24 | 25.46823 | -79.34743 | 25530 ft | 436 kts | 111° |
| 2026-04-25 20:24 | 25.45678 | -79.31621 | 25960 ft | 439 kts | 111° |
| 2026-04-25 20:25 | 25.44537 | -79.28520 | 26378 ft | 443 kts | 111° |
| 2026-04-25 20:25 | 25.43366 | -79.25348 | 26803 ft | 447 kts | 111° |
| 2026-04-25 20:25 | 25.42182 | -79.22149 | 27219 ft | 450 kts | 111° |
| 2026-04-25 20:25 | 25.40990 | -79.18929 | 27627 ft | 454 kts | 111° |
| 2026-04-25 20:26 | 25.39789 | -79.15680 | 28035 ft | 458 kts | 111° |
| 2026-04-25 20:26 | 25.38579 | -79.12405 | 28437 ft | 461 kts | 111° |
| 2026-04-25 20:26 | 25.37362 | -79.09107 | 28837 ft | 465 kts | 111° |
| 2026-04-25 20:26 | 25.36135 | -79.05782 | 29248 ft | 468 kts | 111° |
| 2026-04-25 20:27 | 25.34897 | -79.02434 | 29624 ft | 473 kts | 112° |
| 2026-04-25 20:27 | 25.33645 | -78.99061 | 29996 ft | 476 kts | 112° |
| 2026-04-25 20:27 | 25.32377 | -78.95650 | 30329 ft | 480 kts | 112° |
| 2026-04-25 20:27 | 25.31107 | -78.92233 | 30658 ft | 482 kts | 112° |
| 2026-04-25 20:28 | 25.29830 | -78.88797 | 30997 ft | 485 kts | 112° |
| 2026-04-25 20:28 | 25.28545 | -78.85343 | 31336 ft | 487 kts | 112° |
| 2026-04-25 20:28 | 25.27255 | -78.81874 | 31651 ft | 489 kts | 112° |
| 2026-04-25 20:28 | 25.25974 | -78.78432 | 31968 ft | 492 kts | 112° |
| 2026-04-25 20:29 | 25.24668 | -78.74930 | 32329 ft | 493 kts | 112° |
| 2026-04-25 20:29 | 25.23364 | -78.71433 | 32790 ft | 492 kts | 112° |
| 2026-04-25 20:29 | 25.22062 | -78.67947 | 33240 ft | 491 kts | 112° |
| 2026-04-25 20:29 | 25.20757 | -78.64460 | 33667 ft | 491 kts | 112° |
| 2026-04-25 20:30 | 25.19452 | -78.60976 | 34028 ft | 492 kts | 113° |
| 2026-04-25 20:30 | 25.18142 | -78.57484 | 34300 ft | 494 kts | 113° |
| 2026-04-25 20:30 | 25.16793 | -78.53987 | 34621 ft | 495 kts | 115° |
| 2026-04-25 20:30 | 25.15390 | -78.50510 | 34959 ft | 495 kts | 115° |
| 2026-04-25 20:31 | 25.13950 | -78.47043 | 35294 ft | 496 kts | 116° |
| 2026-04-25 20:31 | 25.12501 | -78.43597 | 35624 ft | 496 kts | 116° |
| 2026-04-25 20:31 | 25.11050 | -78.40147 | 35948 ft | 496 kts | 116° |
| 2026-04-25 20:31 | 25.09604 | -78.36684 | 36264 ft | 496 kts | 116° |
| 2026-04-25 20:32 | 25.08174 | -78.33225 | 36582 ft | 496 kts | 116° |
| 2026-04-25 20:32 | 25.06749 | -78.29756 | 36866 ft | 497 kts | 116° |
| 2026-04-25 20:32 | 25.03919 | -78.22834 | 36959 ft | 491 kts | 116° |
| 2026-04-25 20:33 | 25.01102 | -78.15984 | 36957 ft | 489 kts | 116° |
| 2026-04-25 20:33 | 24.98751 | -78.10317 | 36955 ft | 489 kts | 116° |
| 2026-04-25 20:34 | 24.95469 | -78.02379 | 36959 ft | 489 kts | 116° |
| 2026-04-25 20:34 | 24.92650 | -77.95565 | 36969 ft | 489 kts | 116° |
| 2026-04-25 20:35 | 24.89815 | -77.88751 | 36955 ft | 489 kts | 116° |
| 2026-04-25 20:35 | 24.86983 | -77.81943 | 36954 ft | 489 kts | 116° |
| 2026-04-25 20:36 | 24.84147 | -77.75124 | 36955 ft | 489 kts | 116° |
| 2026-04-25 20:36 | 24.81308 | -77.68310 | 36927 ft | 489 kts | 117° |
| 2026-04-25 20:37 | 24.78460 | -77.61498 | 36931 ft | 490 kts | 117° |
| 2026-04-25 20:37 | 24.75581 | -77.54686 | 36939 ft | 490 kts | 121° |
| 2026-04-25 20:38 | 24.71904 | -77.48413 | 36939 ft | 488 kts | 128° |
| 2026-04-25 20:38 | 24.68068 | -77.42247 | 36940 ft | 488 kts | 128° |
| 2026-04-25 20:39 | 24.64239 | -77.36080 | 36942 ft | 489 kts | 128° |
| 2026-04-25 20:39 | 24.61053 | -77.30952 | 36944 ft | 489 kts | 128° |
| 2026-04-25 20:40 | 24.56595 | -77.23779 | 36947 ft | 489 kts | 128° |
| 2026-04-25 20:40 | 24.52753 | -77.17614 | 36947 ft | 489 kts | 128° |
| 2026-04-25 20:41 | 24.48906 | -77.11449 | 36948 ft | 489 kts | 128° |
| 2026-04-25 20:41 | 24.45057 | -77.05293 | 36926 ft | 489 kts | 129° |
| 2026-04-25 20:42 | 24.41197 | -76.99127 | 36915 ft | 491 kts | 129° |
| 2026-04-25 20:42 | 24.37320 | -76.92949 | 36922 ft | 492 kts | 129° |
| 2026-04-25 20:43 | 24.33435 | -76.86762 | 36933 ft | 493 kts | 129° |
| 2026-04-25 20:43 | 24.29544 | -76.80564 | 36933 ft | 493 kts | 129° |
| 2026-04-25 20:44 | 24.25649 | -76.74366 | 36930 ft | 494 kts | 129° |
| 2026-04-25 20:44 | 24.21749 | -76.68173 | 36938 ft | 494 kts | 130° |
| 2026-04-25 20:45 | 24.17840 | -76.61986 | 36946 ft | 494 kts | 130° |
| 2026-04-25 20:45 | 24.13936 | -76.55795 | 36949 ft | 494 kts | 129° |
| 2026-04-25 20:46 | 24.10029 | -76.49605 | 36948 ft | 494 kts | 130° |
| 2026-04-25 20:46 | 24.06138 | -76.43463 | 36931 ft | 494 kts | 130° |
| 2026-04-25 20:47 | 24.02190 | -76.37243 | 36939 ft | 494 kts | 130° |
| 2026-04-25 20:47 | 23.98274 | -76.31068 | 36946 ft | 494 kts | 130° |
| 2026-04-25 20:48 | 23.94352 | -76.24887 | 36950 ft | 495 kts | 130° |
| 2026-04-25 20:48 | 23.90451 | -76.18748 | 36946 ft | 495 kts | 130° |
| 2026-04-25 20:49 | 23.86521 | -76.12582 | 36944 ft | 494 kts | 130° |
| 2026-04-25 20:49 | 23.82585 | -76.06413 | 36931 ft | 494 kts | 130° |
| 2026-04-25 20:50 | 23.78653 | -76.00254 | 36938 ft | 495 kts | 130° |
| 2026-04-25 20:50 | 23.74715 | -75.94098 | 36938 ft | 495 kts | 130° |
| 2026-04-25 20:51 | 23.70771 | -75.87937 | 36911 ft | 495 kts | 131° |
| 2026-04-25 20:51 | 23.66813 | -75.81758 | 36915 ft | 497 kts | 131° |
| 2026-04-25 20:52 | 23.63522 | -75.76620 | 36914 ft | 497 kts | 131° |
| 2026-04-25 20:52 | 23.58878 | -75.69393 | 36915 ft | 498 kts | 131° |
| 2026-04-25 20:53 | 23.54892 | -75.63209 | 36919 ft | 498 kts | 131° |
| 2026-04-25 20:53 | 23.50907 | -75.57017 | 36923 ft | 499 kts | 131° |
| 2026-04-25 20:54 | 23.46922 | -75.50827 | 36926 ft | 498 kts | 131° |
| 2026-04-25 20:54 | 23.42937 | -75.44652 | 36924 ft | 498 kts | 131° |
| 2026-04-25 20:55 | 23.38946 | -75.38480 | 36919 ft | 499 kts | 131° |
| 2026-04-25 20:55 | 23.34928 | -75.32282 | 36821 ft | 506 kts | 132° |
| 2026-04-25 20:56 | 23.32885 | -75.29144 | 36488 ft | 509 kts | 132° |
| 2026-04-25 20:56 | 23.30843 | -75.25996 | 36189 ft | 508 kts | 132° |
| 2026-04-25 20:56 | 23.28815 | -75.22856 | 35895 ft | 506 kts | 132° |
| 2026-04-25 20:56 | 23.26799 | -75.19731 | 35601 ft | 504 kts | 132° |
| 2026-04-25 20:57 | 23.24792 | -75.16623 | 35313 ft | 501 kts | 132° |
| 2026-04-25 20:57 | 23.22791 | -75.13537 | 35028 ft | 498 kts | 132° |
| 2026-04-25 20:57 | 23.20799 | -75.10476 | 34747 ft | 495 kts | 132° |
| 2026-04-25 20:57 | 23.18840 | -75.07470 | 34470 ft | 492 kts | 132° |
| 2026-04-25 20:58 | 23.16844 | -75.04403 | 34188 ft | 489 kts | 132° |
| 2026-04-25 20:58 | 23.14885 | -75.01389 | 33908 ft | 486 kts | 132° |
| 2026-04-25 20:58 | 23.12963 | -74.98440 | 33597 ft | 483 kts | 132° |
| 2026-04-25 20:58 | 23.11026 | -74.95470 | 33283 ft | 480 kts | 132° |
| 2026-04-25 20:59 | 23.09726 | -74.93475 | 33067 ft | 478 kts | 132° |
| 2026-04-25 20:59 | 23.07195 | -74.89592 | 32665 ft | 473 kts | 132° |
| 2026-04-25 20:59 | 23.05296 | -74.86686 | 32362 ft | 469 kts | 132° |
| 2026-04-25 20:59 | 23.03409 | -74.83810 | 32062 ft | 466 kts | 132° |
| 2026-04-25 21:00 | 23.01532 | -74.80949 | 31763 ft | 463 kts | 131° |
| 2026-04-25 21:00 | 23.00902 | -74.79989 | 31662 ft | 462 kts | 131° |
| 2026-04-25 21:00 | 22.96604 | -74.73415 | 30948 ft | 456 kts | 131° |
| 2026-04-25 21:01 | 22.94771 | -74.70614 | 30666 ft | 454 kts | 131° |
| 2026-04-25 21:01 | 22.92951 | -74.67833 | 30384 ft | 451 kts | 131° |
| 2026-04-25 21:01 | 22.91138 | -74.65068 | 30106 ft | 448 kts | 131° |
| 2026-04-25 21:01 | 22.89339 | -74.62326 | 29798 ft | 445 kts | 131° |
| 2026-04-25 21:02 | 22.87548 | -74.59598 | 29470 ft | 442 kts | 131° |
| 2026-04-25 21:02 | 22.85763 | -74.56881 | 29142 ft | 440 kts | 131° |
| 2026-04-25 21:02 | 22.83995 | -74.54186 | 28821 ft | 437 kts | 131° |
| 2026-04-25 21:02 | 22.82236 | -74.51508 | 28508 ft | 435 kts | 131° |
| 2026-04-25 21:03 | 22.80483 | -74.48843 | 28189 ft | 432 kts | 131° |
| 2026-04-25 21:03 | 22.78735 | -74.46195 | 27878 ft | 430 kts | 131° |
| 2026-04-25 21:03 | 22.77001 | -74.43572 | 27572 ft | 427 kts | 131° |
| 2026-04-25 21:03 | 22.75277 | -74.40961 | 27269 ft | 425 kts | 131° |
| 2026-04-25 21:04 | 22.73564 | -74.38363 | 26972 ft | 422 kts | 131° |
| 2026-04-25 21:04 | 22.71861 | -74.35777 | 26669 ft | 420 kts | 130° |
| 2026-04-25 21:04 | 22.70169 | -74.33207 | 26378 ft | 418 kts | 130° |
| 2026-04-25 21:04 | 22.68485 | -74.30652 | 26088 ft | 416 kts | 130° |
| 2026-04-25 21:05 | 22.66806 | -74.28112 | 25804 ft | 413 kts | 130° |
| 2026-04-25 21:05 | 22.65157 | -74.25624 | 25523 ft | 411 kts | 130° |
| 2026-04-25 21:05 | 22.63495 | -74.23115 | 25218 ft | 409 kts | 130° |
| 2026-04-25 21:05 | 22.61838 | -74.20613 | 24939 ft | 408 kts | 130° |
| 2026-04-25 21:06 | 22.60188 | -74.18126 | 24661 ft | 406 kts | 130° |
| 2026-04-25 21:06 | 22.58544 | -74.15649 | 24392 ft | 404 kts | 130° |
| 2026-04-25 21:06 | 22.56909 | -74.13179 | 24116 ft | 402 kts | 130° |
| 2026-04-25 21:06 | 22.55810 | -74.11519 | 23906 ft | 401 kts | 130° |
| 2026-04-25 21:07 | 22.53672 | -74.08288 | 23493 ft | 398 kts | 130° |
| 2026-04-25 21:07 | 22.52068 | -74.05865 | 23128 ft | 395 kts | 130° |
| 2026-04-25 21:07 | 22.50473 | -74.03459 | 22754 ft | 392 kts | 130° |
| 2026-04-25 21:07 | 22.48887 | -74.01067 | 22390 ft | 390 kts | 130° |
| 2026-04-25 21:08 | 22.47311 | -73.98689 | 22028 ft | 387 kts | 129° |
| 2026-04-25 21:08 | 22.45748 | -73.96336 | 21674 ft | 384 kts | 129° |
| 2026-04-25 21:08 | 22.44194 | -73.94002 | 21324 ft | 381 kts | 129° |
| 2026-04-25 21:08 | 22.42645 | -73.91675 | 20981 ft | 379 kts | 129° |
| 2026-04-25 21:09 | 22.39593 | -73.87083 | 20297 ft | 373 kts | 129° |
| 2026-04-25 21:09 | 22.38081 | -73.84809 | 19963 ft | 371 kts | 129° |
| 2026-04-25 21:09 | 22.36581 | -73.82555 | 19633 ft | 368 kts | 129° |
| 2026-04-25 21:10 | 22.35085 | -73.80318 | 19307 ft | 366 kts | 129° |
| 2026-04-25 21:10 | 22.33599 | -73.78095 | 18985 ft | 364 kts | 129° |
| 2026-04-25 21:10 | 22.32123 | -73.75883 | 18664 ft | 362 kts | 129° |
| 2026-04-25 21:10 | 22.30656 | -73.73685 | 18348 ft | 360 kts | 128° |
| 2026-04-25 21:11 | 22.29198 | -73.71496 | 18005 ft | 358 kts | 128° |
| 2026-04-25 21:11 | 22.27750 | -73.69319 | 17642 ft | 356 kts | 128° |
| 2026-04-25 21:11 | 22.26327 | -73.67184 | 17281 ft | 354 kts | 129° |
| 2026-04-25 21:11 | 22.24888 | -73.65035 | 16925 ft | 353 kts | 129° |
| 2026-04-25 21:12 | 22.23451 | -73.62898 | 16577 ft | 351 kts | 129° |
| 2026-04-25 21:12 | 22.22021 | -73.60766 | 16230 ft | 350 kts | 129° |
| 2026-04-25 21:12 | 22.20578 | -73.58614 | 15883 ft | 349 kts | 129° |
| 2026-04-25 21:12 | 22.19637 | -73.57209 | 15658 ft | 348 kts | 129° |
| 2026-04-25 21:13 | 22.17759 | -73.54406 | 15212 ft | 347 kts | 128° |
| 2026-04-25 21:13 | 22.16347 | -73.52299 | 14881 ft | 345 kts | 128° |
| 2026-04-25 21:13 | 22.14944 | -73.50204 | 14553 ft | 344 kts | 128° |
| 2026-04-25 21:13 | 22.13543 | -73.48110 | 14229 ft | 343 kts | 128° |
| 2026-04-25 21:14 | 22.12150 | -73.46028 | 13908 ft | 342 kts | 128° |
| 2026-04-25 21:14 | 22.10759 | -73.43953 | 13573 ft | 341 kts | 128° |
| 2026-04-25 21:14 | 22.09372 | -73.41886 | 13212 ft | 339 kts | 128° |
| 2026-04-25 21:14 | 22.07987 | -73.39827 | 12855 ft | 338 kts | 128° |
| 2026-04-25 21:15 | 22.06611 | -73.37781 | 12503 ft | 336 kts | 128° |
| 2026-04-25 21:15 | 22.05245 | -73.35745 | 12154 ft | 334 kts | 128° |
| 2026-04-25 21:15 | 22.03886 | -73.33720 | 11811 ft | 332 kts | 128° |
| 2026-04-25 21:15 | 22.02533 | -73.31707 | 11471 ft | 330 kts | 128° |
| 2026-04-25 21:16 | 22.01191 | -73.29716 | 11153 ft | 327 kts | 128° |
| 2026-04-25 21:16 | 21.99862 | -73.27738 | 10845 ft | 324 kts | 128° |
| 2026-04-25 21:16 | 21.98545 | -73.25782 | 10537 ft | 321 kts | 128° |
| 2026-04-25 21:16 | 21.97260 | -73.23870 | 10245 ft | 317 kts | 128° |
| 2026-04-25 21:17 | 21.95976 | -73.21962 | 9964 ft | 312 kts | 128° |
| 2026-04-25 21:17 | 21.94710 | -73.20082 | 9674 ft | 308 kts | 128° |
| 2026-04-25 21:17 | 21.93459 | -73.18231 | 9361 ft | 304 kts | 128° |
| 2026-04-25 21:17 | 21.92220 | -73.16399 | 9061 ft | 301 kts | 128° |
| 2026-04-25 21:18 | 21.90990 | -73.14580 | 8762 ft | 299 kts | 128° |
| 2026-04-25 21:18 | 21.89768 | -73.12771 | 8466 ft | 298 kts | 128° |
| 2026-04-25 21:18 | 21.88553 | -73.10970 | 8161 ft | 297 kts | 128° |
| 2026-04-25 21:18 | 21.87343 | -73.09177 | 7866 ft | 296 kts | 128° |
| 2026-04-25 21:19 | 21.86134 | -73.07388 | 7572 ft | 294 kts | 128° |
| 2026-04-25 21:19 | 21.84931 | -73.05612 | 7290 ft | 293 kts | 128° |
| 2026-04-25 21:19 | 21.83735 | -73.03843 | 7014 ft | 291 kts | 128° |
| 2026-04-25 21:19 | 21.82594 | -73.02044 | 6912 ft | 291 kts | 120° |
| 2026-04-25 21:20 | 21.81853 | -73.00009 | 6923 ft | 294 kts | 104° |
| 2026-04-25 21:20 | 21.81638 | -72.98572 | 6925 ft | 295 kts | 95° |
| 2026-04-25 21:20 | 21.81475 | -72.95624 | 6925 ft | 295 kts | 94° |
| 2026-04-25 21:20 | 21.81348 | -72.93418 | 6915 ft | 295 kts | 94° |
| 2026-04-25 21:21 | 21.81216 | -72.91212 | 6790 ft | 295 kts | 94° |
| 2026-04-25 21:21 | 21.81078 | -72.89016 | 6672 ft | 294 kts | 95° |
| 2026-04-25 21:21 | 21.80938 | -72.86825 | 6555 ft | 294 kts | 95° |
| 2026-04-25 21:21 | 21.80800 | -72.84632 | 6438 ft | 293 kts | 95° |
| 2026-04-25 21:22 | 21.80661 | -72.82442 | 6323 ft | 292 kts | 95° |
| 2026-04-25 21:22 | 21.80522 | -72.80265 | 6206 ft | 292 kts | 95° |
| 2026-04-25 21:22 | 21.80383 | -72.78089 | 6081 ft | 291 kts | 95° |
| 2026-04-25 21:22 | 21.80244 | -72.75919 | 5957 ft | 290 kts | 94° |
| 2026-04-25 21:23 | 21.80107 | -72.73755 | 5832 ft | 290 kts | 95° |
| 2026-04-25 21:23 | 21.79968 | -72.71592 | 5707 ft | 289 kts | 95° |
| 2026-04-25 21:23 | 21.79830 | -72.69458 | 5585 ft | 289 kts | 95° |
| 2026-04-25 21:23 | 21.79691 | -72.67308 | 5461 ft | 286 kts | 94° |
| 2026-04-25 21:24 | 21.79559 | -72.65220 | 5338 ft | 274 kts | 94° |
| 2026-04-25 21:24 | 21.79432 | -72.63218 | 5216 ft | 263 kts | 94° |
| 2026-04-25 21:24 | 21.79308 | -72.61294 | 5094 ft | 253 kts | 94° |
| 2026-04-25 21:24 | 21.79189 | -72.59437 | 4971 ft | 244 kts | 94° |
| 2026-04-25 21:25 | 21.79074 | -72.57647 | 4849 ft | 235 kts | 94° |
| 2026-04-25 21:25 | 21.78962 | -72.55918 | 4727 ft | 227 kts | 94° |
| 2026-04-25 21:25 | 21.78853 | -72.54255 | 4602 ft | 219 kts | 94° |
| 2026-04-25 21:25 | 21.78747 | -72.52647 | 4474 ft | 212 kts | 94° |
| 2026-04-25 21:26 | 21.78645 | -72.51097 | 4359 ft | 203 kts | 94° |
| 2026-04-25 21:26 | 21.78546 | -72.49608 | 4217 ft | 196 kts | 95° |
| 2026-04-25 21:26 | 21.78448 | -72.48157 | 3996 ft | 194 kts | 94° |
| 2026-04-25 21:26 | 21.78352 | -72.46705 | 3716 ft | 195 kts | 94° |
| 2026-04-25 21:27 | 21.78263 | -72.45238 | 3416 ft | 198 kts | 94° |
| 2026-04-25 21:27 | 21.78188 | -72.43751 | 3103 ft | 200 kts | 93° |
| 2026-04-25 21:27 | 21.78116 | -72.42257 | 2776 ft | 199 kts | 93° |
| 2026-04-25 21:27 | 21.78046 | -72.40784 | 2462 ft | 196 kts | 93° |
| 2026-04-25 21:28 | 21.77976 | -72.39327 | 2141 ft | 193 kts | 93° |
| 2026-04-25 21:28 | 21.77907 | -72.37887 | 1823 ft | 191 kts | 92° |
| 2026-04-25 21:28 | 21.77842 | -72.36518 | 1708 ft | 169 kts | 92° |
| 2026-04-25 21:28 | 21.77785 | -72.35348 | 1690 ft | 149 kts | 93° |
| 2026-04-25 21:29 | 21.77732 | -72.34267 | 1661 ft | 143 kts | 92° |
| 2026-04-25 21:29 | 21.77691 | -72.33208 | 1342 ft | 142 kts | 92° |
| 2026-04-25 21:29 | 21.77638 | -72.32131 | 929 ft | 146 kts | 92° |
| 2026-04-25 21:29 | 21.77578 | -72.31055 | 661 ft | 141 kts | 92° |
| 2026-04-25 21:30 | 21.77523 | -72.30022 | 400 ft | 136 kts | 91° |
| 2026-04-25 21:30 | 21.77483 | -72.29022 | 166 ft | 131 kts | 91° |
| 2026-04-25 21:30 | 21.77439 | -72.28054 | 38 ft | 128 kts | 92° |
| 2026-04-25 21:30 | 21.77411 | -72.27442 | 14 ft | 107 kts | 93° |
| 2026-04-25 21:31 | 21.77370 | -72.26710 | 8 ft | 42 kts | 93° |
| 2026-04-25 21:31 | 21.77354 | -72.26409 | 8 ft | 39 kts | 93° |
| 2026-04-25 21:31 | 21.77345 | -72.26218 | 6 ft | 9 kts | 93° |
| 2026-04-25 21:31 | 21.77328 | -72.26146 | 5 ft | 11 kts | 115° |
| 2026-04-25 21:32 | 21.77338 | -72.26128 | 5 ft | 2 kts | 284° |
| 2026-04-25 21:32 | 21.77337 | -72.26167 | 7 ft | 9 kts | 272° |
| 2026-04-25 21:32 | 21.77343 | -72.26256 | 6 ft | 12 kts | 277° |
| 2026-04-25 21:32 | 21.77363 | -72.26285 | 8 ft | 2 kts | 333° |
| 2026-04-25 21:33 | 21.77382 | -72.26288 | 6 ft | 3 kts | 353° |
| 2026-04-25 21:33 | 21.77379 | -72.26298 | 8 ft | 3 kts | 241° |
| 2026-04-25 21:33 | 21.77356 | -72.26352 | 9 ft | 13 kts | 256° |
| 2026-04-25 21:33 | 21.77355 | -72.26452 | 8 ft | 14 kts | 272° |
| 2026-04-25 21:34 | 21.77359 | -72.26562 | 8 ft | 16 kts | 274° |
| 2026-04-25 21:34 | 21.77369 | -72.26710 | 8 ft | 26 kts | 273° |
| 2026-04-25 21:34 | 21.77379 | -72.26913 | 13 ft | 27 kts | 273° |
| 2026-04-25 21:34 | 21.77435 | -72.27067 | 11 ft | 21 kts | 349° |
| 2026-04-25 21:35 | 21.77523 | -72.27120 | 12 ft | 10 kts | 265° |
| 2026-04-25 21:35 | 21.77513 | -72.27184 | 12 ft | 8 kts | 268° |
| 2026-04-25 21:35 | 21.77515 | -72.27243 | 13 ft | 8 kts | 273° |
| 2026-04-25 21:35 | 21.77520 | -72.27303 | 13 ft | 8 kts | 277° |
| 2026-04-25 21:36 | 21.77524 | -72.27370 | 13 ft | 10 kts | 271° |
| 2026-04-25 21:36 | 21.77571 | -72.27412 | 13 ft | 9 kts | 12° |
| 2026-04-25 21:36 | 21.77623 | -72.27369 | 13 ft | 9 kts | 37° |
| 2026-04-25 21:36 | 21.77655 | -72.27359 | 13 ft | 2 kts | 342° |
| 2026-04-25 21:37 | 21.77661 | -72.27362 | 13 ft | 0 kts | 334° |
| 2026-04-25 21:37 | 21.77661 | -72.27363 | 13 ft | 0 kts | 336° |
| 2026-04-25 21:37 | 21.77673 | -72.27369 | 13 ft | 0 kts | 326° |